Terminal Aerodrome Forecast
Issued by NWS

Current Version | Previous Version | Text Only | Print | Product List | Glossary Off
Versions: 1 2 3 4 5 6 7 8 9 10 11 12 13 14 15 16 17

000
FTUS41 KILN 261100
TAFLUK
TAF
KLUK 261134Z 2612/2712 05009KT 5SM -SHRA BR SCT025 OVC035
      TEMPO 2612/2613 3SM -SHRA BR OVC025
     FM261300 33010G20KT 4SM -SHRA BR OVC018
     FM261500 32010G20KT 5SM BR OVC025
     FM262300 32013KT P6SM SCT040 BKN100
     FM270800 33005KT P6SM BKN050=

USA.gov is the U.S. government's official web portal to all federal, state and local government web resources and services.